GB-0029 weather

Melbury Airstrip
Melbury, England, United Kingdom

Public forecast

Using degrees Celsius for public forecast. Weather courtesy of forecast.io.

METAR (pilot weather report)

Closest report is RNAS Yeovilton, 7.8 nm (14.5 km) N. Retrieved 2019/07/21 00:50 UTC (32 minutes ago):

EGDY 210050Z AUTO 23006KT 9999 NCD 14/11 Q1018

TAF (pilot weather forecast)

Forecast is more than 12 hours old.

Closest forecast is RNAS Yeovilton, 7.8 nm (14.5 km) N. Retrieved 2019/05/01 18:06 UTC (3 months ago):

TAF TAF EGDY 010100Z 3018/0103 CNL